sensor_id;sensor_type;location;lat;lon;timestamp;pressure;altitude;pressure_sealevel;temperature;humidity
66945;BME280;53853;51.982;5.928;2023-05-09T00:02:21;101701.47;;;16.29;86.90
66945;BME280;53853;51.982;5.928;2023-05-09T00:04:53;101698.44;;;16.33;87.07
66945;BME280;53853;51.982;5.928;2023-05-09T00:07:23;101703.50;;;16.36;87.01
66945;BME280;53853;51.982;5.928;2023-05-09T00:09:53;101703.16;;;16.39;86.87
66945;BME280;53853;51.982;5.928;2023-05-09T00:12:23;101695.75;;;16.41;86.81
66945;BME280;53853;51.982;5.928;2023-05-09T00:14:53;101692.06;;;16.42;86.82
66945;BME280;53853;51.982;5.928;2023-05-09T00:17:23;101684.81;;;16.42;86.63
66945;BME280;53853;51.982;5.928;2023-05-09T00:19:56;101684.81;;;16.42;86.73
66945;BME280;53853;51.982;5.928;2023-05-09T00:22:27;101674.88;;;16.43;86.98
66945;BME280;53853;51.982;5.928;2023-05-09T00:24:57;101672.38;;;16.41;86.93
66945;BME280;53853;51.982;5.928;2023-05-09T00:27:26;101669.69;;;16.41;86.87
66945;BME280;53853;51.982;5.928;2023-05-09T00:29:56;101662.47;;;16.42;86.87
66945;BME280;53853;51.982;5.928;2023-05-09T00:32:26;101654.56;;;16.40;86.74
66945;BME280;53853;51.982;5.928;2023-05-09T00:34:59;101653.53;;;16.41;87.02
66945;BME280;53853;51.982;5.928;2023-05-09T00:37:30;101657.91;;;16.42;87.17
66945;BME280;53853;51.982;5.928;2023-05-09T00:40:00;101649.69;;;16.44;87.01
66945;BME280;53853;51.982;5.928;2023-05-09T00:42:31;101656.91;;;16.43;86.99
66945;BME280;53853;51.982;5.928;2023-05-09T00:45:01;101647.66;;;16.46;87.08
66945;BME280;53853;51.982;5.928;2023-05-09T00:47:32;101645.81;;;16.46;87.26
66945;BME280;53853;51.982;5.928;2023-05-09T00:50:05;101642.09;;;16.47;87.06
66945;BME280;53853;51.982;5.928;2023-05-09T00:52:35;101636.56;;;16.49;86.89
66945;BME280;53853;51.982;5.928;2023-05-09T00:55:07;101635.56;;;16.50;86.88
66945;BME280;53853;51.982;5.928;2023-05-09T00:57:37;101640.28;;;16.48;87.08
66945;BME280;53853;51.982;5.928;2023-05-09T01:00:08;101638.25;;;16.50;86.98
66945;BME280;53853;51.982;5.928;2023-05-09T01:02:39;101636.22;;;16.52;87.65
66945;BME280;53853;51.982;5.928;2023-05-09T01:05:12;101630.00;;;16.52;87.52
66945;BME280;53853;51.982;5.928;2023-05-09T01:07:53;101635.88;;;16.55;87.49
66945;BME280;53853;51.982;5.928;2023-05-09T01:10:30;101631.16;;;16.57;87.58
66945;BME280;53853;51.982;5.928;2023-05-09T01:13:05;101622.09;;;16.58;87.27
66945;BME280;53853;51.982;5.928;2023-05-09T01:15:42;101619.41;;;16.58;87.29
66945;BME280;53853;51.982;5.928;2023-05-09T01:18:18;101613.00;;;16.59;87.39
66945;BME280;53853;51.982;5.928;2023-05-09T01:20:55;101610.31;;;16.59;87.35
66945;BME280;53853;51.982;5.928;2023-05-09T01:23:45;101604.78;;;16.61;87.73
66945;BME280;53853;51.982;5.928;2023-05-09T01:26:27;101596.88;;;16.59;87.46
66945;BME280;53853;51.982;5.928;2023-05-09T01:29:26;101590.63;;;16.59;87.50
66945;BME280;53853;51.982;5.928;2023-05-09T01:32:01;101589.97;;;16.57;87.54
66945;BME280;53853;51.982;5.928;2023-05-09T01:34:33;101594.34;;;16.58;87.84
66945;BME280;53853;51.982;5.928;2023-05-09T01:37:05;101591.47;;;16.59;87.63
66945;BME280;53853;51.982;5.928;2023-05-09T01:39:37;101595.66;;;16.62;87.52
66945;BME280;53853;51.982;5.928;2023-05-09T01:42:10;101596.19;;;16.65;87.58
66945;BME280;53853;51.982;5.928;2023-05-09T01:44:44;101581.69;;;16.66;87.50
66945;BME280;53853;51.982;5.928;2023-05-09T01:47:16;101581.69;;;16.66;87.72
66945;BME280;53853;51.982;5.928;2023-05-09T01:49:47;101579.19;;;16.65;87.36
66945;BME280;53853;51.982;5.928;2023-05-09T01:52:19;101580.88;;;16.66;87.39
66945;BME280;53853;51.982;5.928;2023-05-09T01:54:50;101581.03;;;16.64;87.47
66945;BME280;53853;51.982;5.928;2023-05-09T01:57:21;101588.09;;;16.65;87.35
66945;BME280;53853;51.982;5.928;2023-05-09T01:59:55;101585.41;;;16.65;87.30
66945;BME280;53853;51.982;5.928;2023-05-09T02:02:27;101584.22;;;16.68;87.43
66945;BME280;53853;51.982;5.928;2023-05-09T02:04:57;101571.63;;;16.69;87.27
66945;BME280;53853;51.982;5.928;2023-05-09T02:07:28;101568.25;;;16.66;86.91
66945;BME280;53853;51.982;5.928;2023-05-09T02:09:58;101560.50;;;16.63;86.84
66945;BME280;53853;51.982;5.928;2023-05-09T02:12:29;101562.38;;;16.63;87.23
66945;BME280;53853;51.982;5.928;2023-05-09T02:15:01;101557.81;;;16.63;87.34
66945;BME280;53853;51.982;5.928;2023-05-09T02:17:31;101558.00;;;16.62;87.16
66945;BME280;53853;51.982;5.928;2023-05-09T02:20:01;101564.56;;;16.59;87.26
66945;BME280;53853;51.982;5.928;2023-05-09T02:22:34;101561.03;;;16.59;87.31
66945;BME280;53853;51.982;5.928;2023-05-09T02:25:06;101571.63;;;16.60;87.31
66945;BME280;53853;51.982;5.928;2023-05-09T02:27:38;101558.34;;;16.59;87.31
66945;BME280;53853;51.982;5.928;2023-05-09T02:30:14;101554.63;;;16.60;87.68
66945;BME280;53853;51.982;5.928;2023-05-09T02:32:49;101553.81;;;16.59;87.58
66945;BME280;53853;51.982;5.928;2023-05-09T02:35:20;101544.03;;;16.58;87.00
66945;BME280;53853;51.982;5.928;2023-05-09T02:37:51;101536.81;;;16.59;87.23
66945;BME280;53853;51.982;5.928;2023-05-09T02:40:21;101546.75;;;16.58;87.26
66945;BME280;53853;51.982;5.928;2023-05-09T02:42:51;101543.56;;;16.55;86.46
66945;BME280;53853;51.982;5.928;2023-05-09T02:45:24;101545.41;;;16.54;86.57
66945;BME280;53853;51.982;5.928;2023-05-09T02:47:54;101543.72;;;16.53;86.46
66945;BME280;53853;51.982;5.928;2023-05-09T02:50:25;101541.38;;;16.50;86.78
66945;BME280;53853;51.982;5.928;2023-05-09T02:52:55;101547.75;;;16.49;86.78
66945;BME280;53853;51.982;5.928;2023-05-09T02:55:25;101544.06;;;16.50;86.81
66945;BME280;53853;51.982;5.928;2023-05-09T02:57:55;101537.00;;;16.49;87.04
66945;BME280;53853;51.982;5.928;2023-05-09T03:00:32;101535.50;;;16.46;86.84
66945;BME280;53853;51.982;5.928;2023-05-09T03:03:03;101530.31;;;16.45;86.15
66945;BME280;53853;51.982;5.928;2023-05-09T03:05:33;101521.38;;;16.44;86.89
66945;BME280;53853;51.982;5.928;2023-05-09T03:08:03;101526.75;;;16.44;87.06
66945;BME280;53853;51.982;5.928;2023-05-09T03:10:34;101528.63;;;16.44;87.27
66945;BME280;53853;51.982;5.928;2023-05-09T03:13:04;101518.69;;;16.44;87.12
66945;BME280;53853;51.982;5.928;2023-05-09T03:15:36;101523.91;;;16.46;87.11
66945;BME280;53853;51.982;5.928;2023-05-09T03:18:07;101517.69;;;16.45;86.79
66945;BME280;53853;51.982;5.928;2023-05-09T03:20:38;101519.53;;;16.45;87.03
66945;BME280;53853;51.982;5.928;2023-05-09T03:23:08;101518.34;;;16.47;87.49
66945;BME280;53853;51.982;5.928;2023-05-09T03:25:38;101511.97;;;16.48;87.29
66945;BME280;53853;51.982;5.928;2023-05-09T03:28:08;101512.13;;;16.47;86.51
66945;BME280;53853;51.982;5.928;2023-05-09T03:30:40;101513.81;;;16.48;87.09
66945;BME280;53853;51.982;5.928;2023-05-09T03:33:13;101514.81;;;16.47;87.10
66945;BME280;53853;51.982;5.928;2023-05-09T03:35:43;101515.00;;;16.45;86.93
66945;BME280;53853;51.982;5.928;2023-05-09T03:38:13;101506.09;;;16.45;86.93
66945;BME280;53853;51.982;5.928;2023-05-09T03:40:43;101509.59;;;16.45;87.07
66945;BME280;53853;51.982;5.928;2023-05-09T03:43:13;101496.31;;;16.44;87.19
66945;BME280;53853;51.982;5.928;2023-05-09T03:45:45;101497.16;;;16.44;87.23
66945;BME280;53853;51.982;5.928;2023-05-09T03:48:15;101500.88;;;16.43;86.31
66945;BME280;53853;51.982;5.928;2023-05-09T03:50:50;101488.09;;;16.45;86.89
66945;BME280;53853;51.982;5.928;2023-05-09T03:53:20;101492.63;;;16.45;86.79
66945;BME280;53853;51.982;5.928;2023-05-09T03:55:53;101492.63;;;16.45;87.15
66945;BME280;53853;51.982;5.928;2023-05-09T03:58:23;101485.56;;;16.44;87.36
66945;BME280;53853;51.982;5.928;2023-05-09T04:00:56;101490.28;;;16.42;86.83
66945;BME280;53853;51.982;5.928;2023-05-09T04:03:26;101485.91;;;16.41;86.22
66945;BME280;53853;51.982;5.928;2023-05-09T04:05:56;101482.41;;;16.40;85.97
66945;BME280;53853;51.982;5.928;2023-05-09T04:08:33;101474.16;;;16.42;86.02
66945;BME280;53853;51.982;5.928;2023-05-09T04:11:04;101467.75;;;16.43;86.37
66945;BME280;53853;51.982;5.928;2023-05-09T04:13:36;101469.59;;;16.42;86.13
66945;BME280;53853;51.982;5.928;2023-05-09T04:16:19;101465.91;;;16.43;86.15
66945;BME280;53853;51.982;5.928;2023-05-09T04:18:49;101465.06;;;16.43;86.60
66945;BME280;53853;51.982;5.928;2023-05-09T04:21:19;101469.44;;;16.44;86.27
66945;BME280;53853;51.982;5.928;2023-05-09T04:23:52;101470.25;;;16.44;86.50
66945;BME280;53853;51.982;5.928;2023-05-09T04:26:29;101466.56;;;16.45;86.78
66945;BME280;53853;51.982;5.928;2023-05-09T04:29:05;101471.13;;;16.45;86.35
66945;BME280;53853;51.982;5.928;2023-05-09T04:31:38;101477.16;;;16.47;86.91
66945;BME280;53853;51.982;5.928;2023-05-09T04:34:11;101473.97;;;16.43;86.44
66945;BME280;53853;51.982;5.928;2023-05-09T04:36:41;101471.28;;;16.43;86.78
66945;BME280;53853;51.982;5.928;2023-05-09T04:39:12;101463.56;;;16.40;86.12
66945;BME280;53853;51.982;5.928;2023-05-09T04:41:50;101469.94;;;16.39;85.81
66945;BME280;53853;51.982;5.928;2023-05-09T04:44:21;101469.94;;;16.39;85.78
66945;BME280;53853;51.982;5.928;2023-05-09T04:46:53;101468.09;;;16.40;86.17
66945;BME280;53853;51.982;5.928;2023-05-09T04:49:24;101458.34;;;16.39;85.96
66945;BME280;53853;51.982;5.928;2023-05-09T04:51:53;101449.25;;;16.40;86.06
66945;BME280;53853;51.982;5.928;2023-05-09T04:54:23;101446.38;;;16.41;86.32
66945;BME280;53853;51.982;5.928;2023-05-09T04:56:54;101445.72;;;16.39;85.85
66945;BME280;53853;51.982;5.928;2023-05-09T04:59:24;101445.56;;;16.41;86.20
66945;BME280;53853;51.982;5.928;2023-05-09T05:01:57;101434.81;;;16.41;86.08
66945;BME280;53853;51.982;5.928;2023-05-09T05:04:27;101439.34;;;16.40;85.93
66945;BME280;53853;51.982;5.928;2023-05-09T05:06:58;101438.16;;;16.43;85.87
66945;BME280;53853;51.982;5.928;2023-05-09T05:09:28;101432.75;;;16.43;86.00
66945;BME280;53853;51.982;5.928;2023-05-09T05:11:57;101437.81;;;16.46;86.16
66945;BME280;53853;51.982;5.928;2023-05-09T05:14:27;101434.09;;;16.47;85.97
66945;BME280;53853;51.982;5.928;2023-05-09T05:17:00;101446.38;;;16.50;85.87
66945;BME280;53853;51.982;5.928;2023-05-09T05:19:30;101439.16;;;16.50;85.41
66945;BME280;53853;51.982;5.928;2023-05-09T05:22:00;101431.06;;;16.50;85.89
66945;BME280;53853;51.982;5.928;2023-05-09T05:24:32;101425.69;;;16.50;85.78
66945;BME280;53853;51.982;5.928;2023-05-09T05:27:01;101419.97;;;16.53;85.94
66945;BME280;53853;51.982;5.928;2023-05-09T05:29:31;101422.81;;;16.52;85.74
66945;BME280;53853;51.982;5.928;2023-05-09T05:32:04;101421.66;;;16.54;85.57
66945;BME280;53853;51.982;5.928;2023-05-09T05:34:34;101413.88;;;16.59;85.60
66945;BME280;53853;51.982;5.928;2023-05-09T05:37:05;101413.53;;;16.62;85.55
66945;BME280;53853;51.982;5.928;2023-05-09T05:39:36;101416.53;;;16.67;85.89
66945;BME280;53853;51.982;5.928;2023-05-09T05:42:06;101419.69;;;16.71;86.04
66945;BME280;53853;51.982;5.928;2023-05-09T05:44:36;101412.59;;;16.78;86.46
66945;BME280;53853;51.982;5.928;2023-05-09T05:47:08;101402.31;;;16.82;85.98
66945;BME280;53853;51.982;5.928;2023-05-09T05:49:39;101398.44;;;16.84;85.41
66945;BME280;53853;51.982;5.928;2023-05-09T05:52:09;101399.44;;;16.92;86.15
66945;BME280;53853;51.982;5.928;2023-05-09T05:54:40;101387.78;;;16.99;86.04
66945;BME280;53853;51.982;5.928;2023-05-09T05:57:10;101389.75;;;17.06;86.22
66945;BME280;53853;51.982;5.928;2023-05-09T05:59:40;101393.59;;;17.11;85.45
66945;BME280;53853;51.982;5.928;2023-05-09T06:02:12;101382.94;;;17.18;85.71
66945;BME280;53853;51.982;5.928;2023-05-09T06:04:43;101380.72;;;17.22;84.79
66945;BME280;53853;51.982;5.928;2023-05-09T06:07:14;101372.72;;;17.28;85.30
66945;BME280;53853;51.982;5.928;2023-05-09T06:09:44;101374.88;;;17.33;85.11
66945;BME280;53853;51.982;5.928;2023-05-09T06:12:14;101376.03;;;17.38;85.26
66945;BME280;53853;51.982;5.928;2023-05-09T06:14:44;101367.78;;;17.40;83.93
66945;BME280;53853;51.982;5.928;2023-05-09T06:17:17;101367.03;;;17.46;84.41
66945;BME280;53853;51.982;5.928;2023-05-09T06:19:46;101362.75;;;17.52;83.78
66945;BME280;53853;51.982;5.928;2023-05-09T06:22:16;101363.59;;;17.52;82.24
66945;BME280;53853;51.982;5.928;2023-05-09T06:24:46;101361.38;;;17.56;82.36
66945;BME280;53853;51.982;5.928;2023-05-09T06:27:16;101363.22;;;17.55;81.60
66945;BME280;53853;51.982;5.928;2023-05-09T06:29:46;101354.97;;;17.57;81.26
66945;BME280;53853;51.982;5.928;2023-05-09T06:32:18;101352.25;;;17.57;81.31
66945;BME280;53853;51.982;5.928;2023-05-09T06:34:48;101348.19;;;17.61;80.98
66945;BME280;53853;51.982;5.928;2023-05-09T06:37:18;101352.03;;;17.67;81.10
66945;BME280;53853;51.982;5.928;2023-05-09T06:39:48;101336.78;;;17.74;81.38
66945;BME280;53853;51.982;5.928;2023-05-09T06:42:20;101343.75;;;17.83;81.53
66945;BME280;53853;51.982;5.928;2023-05-09T06:44:50;101341.16;;;17.90;79.83
66945;BME280;53853;51.982;5.928;2023-05-09T06:47:22;101334.66;;;17.99;79.60
66945;BME280;53853;51.982;5.928;2023-05-09T06:49:52;101323.97;;;18.06;80.15
66945;BME280;53853;51.982;5.928;2023-05-09T06:52:22;101321.16;;;18.14;80.47
66945;BME280;53853;51.982;5.928;2023-05-09T06:54:52;101310.94;;;18.24;81.06
66945;BME280;53853;51.982;5.928;2023-05-09T06:57:21;101309.97;;;18.32;80.19
66945;BME280;53853;51.982;5.928;2023-05-09T06:59:51;101316.09;;;18.41;81.00
66945;BME280;53853;51.982;5.928;2023-05-09T07:02:24;101312.06;;;18.52;81.37
66945;BME280;53853;51.982;5.928;2023-05-09T07:04:53;101310.91;;;18.61;80.01
66945;BME280;53853;51.982;5.928;2023-05-09T07:07:23;101308.22;;;18.61;78.15
66945;BME280;53853;51.982;5.928;2023-05-09T07:09:53;101302.44;;;18.64;76.26
66945;BME280;53853;51.982;5.928;2023-05-09T07:12:23;101307.72;;;18.72;77.32
66945;BME280;53853;51.982;5.928;2023-05-09T07:14:53;101303.59;;;18.76;77.39
66945;BME280;53853;51.982;5.928;2023-05-09T07:17:25;101303.50;;;18.85;75.12
66945;BME280;53853;51.982;5.928;2023-05-09T07:19:55;101299.28;;;18.82;73.75
66945;BME280;53853;51.982;5.928;2023-05-09T07:22:25;101287.59;;;18.75;73.21
66945;BME280;53853;51.982;5.928;2023-05-09T07:24:55;101286.75;;;18.74;74.11
66945;BME280;53853;51.982;5.928;2023-05-09T07:27:25;101291.94;;;18.76;73.89
66945;BME280;53853;51.982;5.928;2023-05-09T07:29:55;101282.25;;;18.81;74.64
66945;BME280;53853;51.982;5.928;2023-05-09T07:32:27;101286.25;;;18.86;74.65
66945;BME280;53853;51.982;5.928;2023-05-09T07:34:57;101278.50;;;18.82;73.60
66945;BME280;53853;51.982;5.928;2023-05-09T07:37:27;101276.50;;;18.85;75.13
66945;BME280;53853;51.982;5.928;2023-05-09T07:39:57;101275.06;;;18.89;75.53
66945;BME280;53853;51.982;5.928;2023-05-09T07:42:27;101272.16;;;18.90;75.09
66945;BME280;53853;51.982;5.928;2023-05-09T07:44:58;101269.56;;;18.97;75.73
66945;BME280;53853;51.982;5.928;2023-05-09T07:47:32;101265.41;;;19.01;75.56
66945;BME280;53853;51.982;5.928;2023-05-09T07:50:02;101267.91;;;19.03;73.31
66945;BME280;53853;51.982;5.928;2023-05-09T07:52:32;101254.47;;;19.09;74.45
66945;BME280;53853;51.982;5.928;2023-05-09T07:55:02;101254.91;;;19.13;74.01
66945;BME280;53853;51.982;5.928;2023-05-09T07:57:32;101251.63;;;19.17;74.57
66945;BME280;53853;51.982;5.928;2023-05-09T08:00:02;101240.81;;;19.17;73.12
66945;BME280;53853;51.982;5.928;2023-05-09T08:02:42;101243.38;;;19.26;74.17
66945;BME280;53853;51.982;5.928;2023-05-09T08:05:12;101237.19;;;19.32;73.49
66945;BME280;53853;51.982;5.928;2023-05-09T08:07:42;101247.16;;;19.38;72.33
66945;BME280;53853;51.982;5.928;2023-05-09T08:10:12;101233.06;;;19.43;71.99
66945;BME280;53853;51.982;5.928;2023-05-09T08:12:42;101241.84;;;19.45;71.21
66945;BME280;53853;51.982;5.928;2023-05-09T08:15:12;101236.84;;;19.48;72.10
66945;BME280;53853;51.982;5.928;2023-05-09T08:17:44;101226.28;;;19.53;72.64
66945;BME280;53853;51.982;5.928;2023-05-09T08:20:14;101224.44;;;19.61;73.23
66945;BME280;53853;51.982;5.928;2023-05-09T08:22:44;101223.44;;;19.68;73.76
66945;BME280;53853;51.982;5.928;2023-05-09T08:25:13;101222.00;;;19.72;73.57
66945;BME280;53853;51.982;5.928;2023-05-09T08:27:44;101221.97;;;19.66;70.42
66945;BME280;53853;51.982;5.928;2023-05-09T08:30:14;101211.16;;;19.66;72.31
66945;BME280;53853;51.982;5.928;2023-05-09T08:32:46;101217.38;;;19.66;72.94
66945;BME280;53853;51.982;5.928;2023-05-09T08:35:17;101215.75;;;19.65;72.62
66945;BME280;53853;51.982;5.928;2023-05-09T08:37:46;101208.66;;;19.64;72.23
66945;BME280;53853;51.982;5.928;2023-05-09T08:40:17;101206.34;;;19.61;72.02
66945;BME280;53853;51.982;5.928;2023-05-09T08:42:48;101211.97;;;19.60;72.51
66945;BME280;53853;51.982;5.928;2023-05-09T08:45:24;101202.59;;;19.55;73.04
66945;BME280;53853;51.982;5.928;2023-05-09T08:47:58;101201.94;;;19.53;73.78
66945;BME280;53853;51.982;5.928;2023-05-09T08:50:28;101199.84;;;19.49;73.85
66945;BME280;53853;51.982;5.928;2023-05-09T08:52:58;101190.69;;;19.43;72.19
66945;BME280;53853;51.982;5.928;2023-05-09T08:55:28;101186.06;;;19.37;71.23
66945;BME280;53853;51.982;5.928;2023-05-09T08:57:58;101188.75;;;19.37;72.85
66945;BME280;53853;51.982;5.928;2023-05-09T09:00:31;101186.47;;;19.34;73.10
66945;BME280;53853;51.982;5.928;2023-05-09T09:03:06;101180.44;;;19.32;72.93
66945;BME280;53853;51.982;5.928;2023-05-09T09:05:37;101182.97;;;19.40;73.73
66945;BME280;53853;51.982;5.928;2023-05-09T09:08:07;101180.50;;;19.45;72.27
66945;BME280;53853;51.982;5.928;2023-05-09T09:10:40;101176.75;;;19.46;72.33
66945;BME280;53853;51.982;5.928;2023-05-09T09:13:14;101171.28;;;19.40;71.71
66945;BME280;53853;51.982;5.928;2023-05-09T09:15:45;101176.91;;;19.38;71.87
66945;BME280;53853;51.982;5.928;2023-05-09T09:18:22;101180.63;;;19.30;71.11
66945;BME280;53853;51.982;5.928;2023-05-09T09:20:57;101172.47;;;19.24;70.79
66945;BME280;53853;51.982;5.928;2023-05-09T09:23:28;101169.91;;;19.15;70.68
66945;BME280;53853;51.982;5.928;2023-05-09T09:25:59;101172.59;;;19.09;71.90
66945;BME280;53853;51.982;5.928;2023-05-09T09:28:30;101172.34;;;19.04;72.28
66945;BME280;53853;51.982;5.928;2023-05-09T09:31:00;101171.28;;;18.98;72.46
66945;BME280;53853;51.982;5.928;2023-05-09T09:33:36;101158.75;;;18.90;71.75
66945;BME280;53853;51.982;5.928;2023-05-09T09:36:06;101170.13;;;18.86;70.95
66945;BME280;53853;51.982;5.928;2023-05-09T09:38:39;101164.84;;;18.77;70.92
66945;BME280;53853;51.982;5.928;2023-05-09T09:41:11;101161.53;;;18.75;71.45
66945;BME280;53853;51.982;5.928;2023-05-09T09:43:44;101155.22;;;18.68;70.73
66945;BME280;53853;51.982;5.928;2023-05-09T09:46:14;101164.22;;;18.75;71.57
66945;BME280;53853;51.982;5.928;2023-05-09T09:48:48;101158.88;;;18.82;70.29
66945;BME280;53853;51.982;5.928;2023-05-09T09:51:22;101159.69;;;18.82;70.14
66945;BME280;53853;51.982;5.928;2023-05-09T09:53:55;101158.31;;;18.87;68.58
66945;BME280;53853;51.982;5.928;2023-05-09T09:56:38;101151.09;;;18.94;68.79
66945;BME280;53853;51.982;5.928;2023-05-09T09:59:09;101154.03;;;18.99;68.77
66945;BME280;53853;51.982;5.928;2023-05-09T10:01:54;101148.47;;;19.07;69.95
66945;BME280;53853;51.982;5.928;2023-05-09T10:04:28;101141.88;;;19.16;68.99
66945;BME280;53853;51.982;5.928;2023-05-09T10:07:00;101144.03;;;19.28;69.09
66945;BME280;53853;51.982;5.928;2023-05-09T10:09:31;101140.34;;;19.42;69.81
66945;BME280;53853;51.982;5.928;2023-05-09T10:12:02;101135.84;;;19.56;70.99
66945;BME280;53853;51.982;5.928;2023-05-09T10:14:35;101138.78;;;19.68;69.03
66945;BME280;53853;51.982;5.928;2023-05-09T10:17:05;101141.97;;;19.78;69.30
66945;BME280;53853;51.982;5.928;2023-05-09T10:19:37;101142.19;;;19.83;68.96
66945;BME280;53853;51.982;5.928;2023-05-09T10:22:16;101133.88;;;19.91;69.20
66945;BME280;53853;51.982;5.928;2023-05-09T10:24:54;101132.44;;;19.96;65.88
66945;BME280;53853;51.982;5.928;2023-05-09T10:27:29;101139.28;;;19.91;65.77
66945;BME280;53853;51.982;5.928;2023-05-09T10:30:06;101130.16;;;19.86;64.14
66945;BME280;53853;51.982;5.928;2023-05-09T10:32:42;101123.88;;;19.85;64.49
66945;BME280;53853;51.982;5.928;2023-05-09T10:35:28;101113.91;;;19.93;65.32
66945;BME280;53853;51.982;5.928;2023-05-09T10:37:59;101110.41;;;20.05;66.60
66945;BME280;53853;51.982;5.928;2023-05-09T10:40:30;101108.09;;;20.16;67.65
66945;BME280;53853;51.982;5.928;2023-05-09T10:43:00;101101.25;;;20.26;66.60
66945;BME280;53853;51.982;5.928;2023-05-09T10:45:31;101101.03;;;20.35;67.74
66945;BME280;53853;51.982;5.928;2023-05-09T10:48:01;101098.97;;;20.37;66.14
66945;BME280;53853;51.982;5.928;2023-05-09T10:50:35;101099.81;;;20.37;65.92
66945;BME280;53853;51.982;5.928;2023-05-09T10:53:07;101105.22;;;20.31;66.74
66945;BME280;53853;51.982;5.928;2023-05-09T10:55:46;101102.50;;;20.17;63.69
66945;BME280;53853;51.982;5.928;2023-05-09T10:58:23;101100.59;;;19.98;65.34
66945;BME280;53853;51.982;5.928;2023-05-09T11:00:54;101092.84;;;19.75;65.38
66945;BME280;53853;51.982;5.928;2023-05-09T11:03:25;101096.97;;;19.64;66.54
66945;BME280;53853;51.982;5.928;2023-05-09T11:05:58;101094.22;;;19.50;67.79
66945;BME280;53853;51.982;5.928;2023-05-09T11:08:29;101094.81;;;19.46;67.55
66945;BME280;53853;51.982;5.928;2023-05-09T11:11:06;101090.88;;;19.42;69.02
66945;BME280;53853;51.982;5.928;2023-05-09T11:13:36;101090.22;;;19.40;69.96
66945;BME280;53853;51.982;5.928;2023-05-09T11:16:10;101093.56;;;19.35;70.33
66945;BME280;53853;51.982;5.928;2023-05-09T11:18:51;101088.91;;;19.22;69.14
66945;BME280;53853;51.982;5.928;2023-05-09T11:21:25;101082.41;;;19.10;70.12
66945;BME280;53853;51.982;5.928;2023-05-09T11:23:55;101081.91;;;18.93;70.51
66945;BME280;53853;51.982;5.928;2023-05-09T11:26:28;101073.97;;;18.85;71.56
66945;BME280;53853;51.982;5.928;2023-05-09T11:28:59;101086.94;;;18.74;71.78
66945;BME280;53853;51.982;5.928;2023-05-09T11:31:28;101075.84;;;18.56;72.74
66945;BME280;53853;51.982;5.928;2023-05-09T11:34:01;101084.72;;;18.50;73.48
66945;BME280;53853;51.982;5.928;2023-05-09T11:36:35;101083.44;;;18.45;74.22
66945;BME280;53853;51.982;5.928;2023-05-09T11:39:06;101079.47;;;18.41;73.65
66945;BME280;53853;51.982;5.928;2023-05-09T11:41:40;101067.78;;;18.34;73.06
66945;BME280;53853;51.982;5.928;2023-05-09T11:44:14;101070.63;;;18.26;73.43
66945;BME280;53853;51.982;5.928;2023-05-09T11:46:46;101071.97;;;18.15;73.99
66945;BME280;53853;51.982;5.928;2023-05-09T11:49:17;101070.06;;;18.09;74.81
66945;BME280;53853;51.982;5.928;2023-05-09T11:51:49;101069.22;;;18.08;75.27
66945;BME280;53853;51.982;5.928;2023-05-09T11:54:22;101064.22;;;18.05;76.11
66945;BME280;53853;51.982;5.928;2023-05-09T11:56:52;101054.66;;;18.03;76.11
66945;BME280;53853;51.982;5.928;2023-05-09T11:59:22;101056.34;;;18.04;76.37
66945;BME280;53853;51.982;5.928;2023-05-09T12:01:52;101050.34;;;18.08;76.44
66945;BME280;53853;51.982;5.928;2023-05-09T12:04:23;101043.53;;;18.13;76.25
66945;BME280;53853;51.982;5.928;2023-05-09T12:06:57;101042.75;;;18.19;76.31
66945;BME280;53853;51.982;5.928;2023-05-09T12:09:30;101033.97;;;18.10;75.93
66945;BME280;53853;51.982;5.928;2023-05-09T12:12:00;101033.00;;;18.18;76.80
66945;BME280;53853;51.982;5.928;2023-05-09T12:14:32;101029.94;;;18.21;76.67
66945;BME280;53853;51.982;5.928;2023-05-09T12:17:02;101035.38;;;18.27;75.76
66945;BME280;53853;51.982;5.928;2023-05-09T12:19:32;101035.38;;;18.27;75.87
66945;BME280;53853;51.982;5.928;2023-05-09T12:22:05;101037.00;;;18.28;76.31
66945;BME280;53853;51.982;5.928;2023-05-09T12:24:36;101030.34;;;18.24;76.12
66945;BME280;53853;51.982;5.928;2023-05-09T12:27:06;101025.94;;;18.17;75.69
66945;BME280;53853;51.982;5.928;2023-05-09T12:29:36;101031.53;;;18.15;76.24
66945;BME280;53853;51.982;5.928;2023-05-09T12:32:08;101024.03;;;18.10;76.12
66945;BME280;53853;51.982;5.928;2023-05-09T12:34:38;101025.53;;;18.20;76.36
66945;BME280;53853;51.982;5.928;2023-05-09T12:37:16;101026.19;;;18.22;76.37
66945;BME280;53853;51.982;5.928;2023-05-09T12:40:00;101016.28;;;18.29;76.38
66945;BME280;53853;51.982;5.928;2023-05-09T12:42:31;101013.75;;;18.21;75.14
66945;BME280;53853;51.982;5.928;2023-05-09T12:45:01;101013.06;;;18.19;75.78
66945;BME280;53853;51.982;5.928;2023-05-09T12:47:32;101006.91;;;18.25;76.48
66945;BME280;53853;51.982;5.928;2023-05-09T12:50:06;101003.81;;;18.28;76.59
66945;BME280;53853;51.982;5.928;2023-05-09T12:52:40;101000.72;;;18.31;76.92
66945;BME280;53853;51.982;5.928;2023-05-09T12:55:13;101005.91;;;18.33;76.19
66945;BME280;53853;51.982;5.928;2023-05-09T12:57:57;101005.44;;;18.22;75.55
66945;BME280;53853;51.982;5.928;2023-05-09T13:00:27;100995.25;;;18.18;76.20
66945;BME280;53853;51.982;5.928;2023-05-09T13:02:57;101001.28;;;18.20;76.47
66945;BME280;53853;51.982;5.928;2023-05-09T13:05:27;100996.91;;;18.19;75.92
66945;BME280;53853;51.982;5.928;2023-05-09T13:07:59;100996.25;;;18.17;76.21
66945;BME280;53853;51.982;5.928;2023-05-09T13:10:29;100996.66;;;18.14;76.84
66945;BME280;53853;51.982;5.928;2023-05-09T13:12:59;100989.59;;;18.13;75.68
66945;BME280;53853;51.982;5.928;2023-05-09T13:15:29;100987.88;;;18.05;76.04